createdAt,value
2022-10-09T00:02:16.801Z,47.00
2022-10-09T00:04:43.436Z,47.00
2022-10-09T00:07:10.160Z,47.01
2022-10-09T00:09:36.701Z,47.03
2022-10-09T00:12:03.394Z,47.01
2022-10-09T00:14:30.011Z,47.01
2022-10-09T00:16:56.607Z,47.01
2022-10-09T00:19:23.234Z,47.00
2022-10-09T00:21:49.865Z,47.00
2022-10-09T00:24:16.489Z,47.01
2022-10-09T00:26:43.131Z,47.02
2022-10-09T00:29:09.875Z,47.01
2022-10-09T00:31:36.510Z,47.02
2022-10-09T00:34:03.167Z,47.02
2022-10-09T00:36:29.717Z,47.01
2022-10-09T00:38:56.294Z,47.01
2022-10-09T00:41:25.930Z,47.01
2022-10-09T00:43:57.279Z,47.01
2022-10-09T00:46:42.645Z,47.01
2022-10-09T00:49:20.966Z,47.02
2022-10-09T00:51:47.814Z,47.02
2022-10-09T00:54:15.441Z,47.02
2022-10-09T00:56:42.136Z,47.03
2022-10-09T00:59:08.729Z,47.03
2022-10-09T01:01:35.444Z,47.03
2022-10-09T01:04:02.132Z,47.03
2022-10-09T01:06:43.941Z,47.03
2022-10-09T01:09:20.192Z,47.04
2022-10-09T01:12:02.747Z,47.05
2022-10-09T01:14:39.720Z,47.06
2022-10-09T01:17:20.494Z,47.05
2022-10-09T01:20:17.230Z,47.05
2022-10-09T01:22:47.146Z,47.05
2022-10-09T01:25:27.139Z,47.08
2022-10-09T01:27:53.728Z,47.08
2022-10-09T01:30:20.379Z,47.08
2022-10-09T01:32:48.879Z,47.09
2022-10-09T01:35:15.636Z,47.08
2022-10-09T01:37:43.129Z,47.08
2022-10-09T01:40:10.413Z,47.08
2022-10-09T01:42:37.119Z,47.08
2022-10-09T01:45:03.852Z,47.09
2022-10-09T01:47:30.684Z,47.09
2022-10-09T01:50:22.834Z,47.10
2022-10-09T01:52:55.266Z,47.11
2022-10-09T01:55:27.909Z,47.13
2022-10-09T01:57:59.700Z,47.11
2022-10-09T02:00:26.484Z,47.13
2022-10-09T02:02:53.560Z,47.14
2022-10-09T02:05:22.631Z,47.13
2022-10-09T02:07:49.441Z,47.15
2022-10-09T02:10:17.008Z,47.16
2022-10-09T02:12:47.246Z,47.16
2022-10-09T02:15:14.007Z,47.17
2022-10-09T02:17:43.995Z,47.17
2022-10-09T02:20:14.633Z,47.18
2022-10-09T02:22:41.607Z,47.18
2022-10-09T02:25:08.237Z,47.18
2022-10-09T02:27:34.847Z,47.19
2022-10-09T02:30:01.518Z,47.20
2022-10-09T02:32:28.699Z,47.20
2022-10-09T02:34:55.248Z,47.22
2022-10-09T02:37:22.033Z,47.21
2022-10-09T02:39:49.077Z,47.23
2022-10-09T02:42:15.619Z,47.23
2022-10-09T02:44:42.498Z,47.26
2022-10-09T02:47:09.207Z,47.26
2022-10-09T02:49:35.778Z,47.27
2022-10-09T02:52:02.351Z,47.27
2022-10-09T02:54:28.907Z,47.28
2022-10-09T02:56:55.426Z,47.29
2022-10-09T02:59:21.988Z,47.30
2022-10-09T03:01:50.023Z,47.32
2022-10-09T03:04:16.775Z,47.32
2022-10-09T03:06:43.397Z,47.34
2022-10-09T03:09:09.967Z,47.33
2022-10-09T03:11:36.567Z,47.36
2022-10-09T03:14:03.101Z,47.37
2022-10-09T03:16:29.743Z,47.37
2022-10-09T03:18:56.492Z,47.39
2022-10-09T03:21:24.723Z,47.39
2022-10-09T03:23:51.843Z,47.39
2022-10-09T03:26:20.078Z,47.39
2022-10-09T03:28:47.958Z,47.40
2022-10-09T03:31:27.663Z,47.41
2022-10-09T03:34:02.147Z,47.42
2022-10-09T03:36:28.754Z,47.43
2022-10-09T03:38:55.319Z,47.46
2022-10-09T03:41:21.938Z,47.47
2022-10-09T03:43:48.480Z,47.47
2022-10-09T03:46:15.138Z,47.49
2022-10-09T03:48:41.696Z,47.51
2022-10-09T03:51:08.268Z,47.51
2022-10-09T03:53:35.103Z,47.52
2022-10-09T03:56:01.722Z,47.55
2022-10-09T03:58:28.323Z,47.56
2022-10-09T04:00:55.069Z,47.56
2022-10-09T04:03:24.286Z,47.45
2022-10-09T04:05:50.850Z,48.06
2022-10-09T04:08:17.417Z,47.59
2022-10-09T04:10:43.948Z,47.58
2022-10-09T04:13:10.740Z,47.21
2022-10-09T04:15:37.636Z,46.94
2022-10-09T04:18:04.400Z,46.78
2022-10-09T04:20:34.114Z,46.34
2022-10-09T04:23:00.816Z,45.93
2022-10-09T04:25:27.641Z,45.66
2022-10-09T04:27:54.303Z,45.46
2022-10-09T04:30:20.895Z,45.20
2022-10-09T04:32:48.390Z,45.08
2022-10-09T04:35:16.612Z,45.05
2022-10-09T04:37:43.163Z,44.85
2022-10-09T04:40:09.904Z,44.78
2022-10-09T04:42:36.533Z,44.67
2022-10-09T04:45:03.380Z,44.63
2022-10-09T04:47:32.961Z,44.61
2022-10-09T04:49:59.566Z,44.50
2022-10-09T04:52:26.185Z,44.49
2022-10-09T04:54:52.749Z,44.43
2022-10-09T04:57:19.300Z,44.39
2022-10-09T04:59:46.024Z,44.42
2022-10-09T05:02:12.580Z,44.35
2022-10-09T05:04:39.579Z,44.30
2022-10-09T05:07:06.154Z,44.31
2022-10-09T05:09:32.768Z,44.32
2022-10-09T05:11:59.335Z,44.35
2022-10-09T05:14:25.910Z,44.35
2022-10-09T05:17:12.638Z,44.19
2022-10-09T05:19:39.453Z,44.25
2022-10-09T05:22:06.025Z,44.24
2022-10-09T05:24:32.771Z,44.25
2022-10-09T05:26:59.435Z,44.34
2022-10-09T05:29:26.061Z,44.22
2022-10-09T05:31:52.768Z,44.25
2022-10-09T05:34:21.439Z,44.32
2022-10-09T05:36:48.147Z,44.22
2022-10-09T05:39:16.211Z,44.32
2022-10-09T05:41:42.768Z,44.35
2022-10-09T05:44:12.113Z,44.32
2022-10-09T05:46:38.722Z,44.30
2022-10-09T05:49:05.628Z,44.27
2022-10-09T05:51:36.730Z,44.34
2022-10-09T05:54:03.818Z,44.31
2022-10-09T05:56:37.758Z,44.37
2022-10-09T05:59:05.737Z,44.12
2022-10-09T06:01:34.064Z,44.38
2022-10-09T06:04:00.828Z,44.35
2022-10-09T06:06:32.040Z,44.28
2022-10-09T06:08:58.861Z,44.36
2022-10-09T06:11:31.598Z,44.33
2022-10-09T06:13:58.922Z,44.29
2022-10-09T06:16:26.887Z,44.27
2022-10-09T06:18:53.797Z,44.34
2022-10-09T06:21:20.397Z,44.27
2022-10-09T06:23:51.386Z,44.33
2022-10-09T06:26:18.311Z,44.31
2022-10-09T06:28:45.172Z,44.33
2022-10-09T06:31:22.249Z,44.31
2022-10-09T06:33:49.547Z,44.34
2022-10-09T06:36:20.767Z,44.25
2022-10-09T06:38:47.705Z,44.22
2022-10-09T06:41:18.760Z,44.25
2022-10-09T06:43:56.152Z,44.27
2022-10-09T06:46:24.535Z,44.21
2022-10-09T06:48:51.157Z,44.20
2022-10-09T06:51:19.017Z,44.19
2022-10-09T06:53:52.826Z,44.18
2022-10-09T06:56:20.109Z,44.10
2022-10-09T06:58:46.669Z,44.11
2022-10-09T07:01:14.030Z,43.99
2022-10-09T07:03:43.673Z,44.02
2022-10-09T07:06:10.183Z,44.05
2022-10-09T07:08:37.307Z,44.10
2022-10-09T07:11:16.584Z,44.09
2022-10-09T07:13:44.426Z,43.97
2022-10-09T07:16:11.512Z,43.96
2022-10-09T07:18:41.271Z,44.02
2022-10-09T07:21:08.589Z,44.00
2022-10-09T07:23:35.511Z,44.00
2022-10-09T07:26:02.845Z,43.90
2022-10-09T07:28:30.027Z,43.96
2022-10-09T07:30:56.860Z,43.95
2022-10-09T07:33:23.506Z,43.88
2022-10-09T07:35:56.735Z,43.94
2022-10-09T07:38:24.496Z,43.99
2022-10-09T07:40:52.216Z,44.01
2022-10-09T07:43:18.909Z,44.04
2022-10-09T07:45:45.455Z,44.05
2022-10-09T07:48:12.501Z,44.01
2022-10-09T07:50:39.049Z,44.08
2022-10-09T07:53:05.660Z,44.01
2022-10-09T07:55:32.212Z,43.98
2022-10-09T07:57:58.814Z,44.01
2022-10-09T08:00:25.459Z,44.02
2022-10-09T08:02:52.489Z,44.08
2022-10-09T08:05:19.468Z,44.15
2022-10-09T08:07:46.011Z,44.21
2022-10-09T08:10:12.824Z,44.21
2022-10-09T08:12:39.370Z,44.33
2022-10-09T08:15:06.711Z,44.46
2022-10-09T08:17:33.506Z,44.57
2022-10-09T08:20:02.610Z,44.60
2022-10-09T08:22:29.401Z,44.70
2022-10-09T08:24:56.016Z,44.86
2022-10-09T08:27:22.639Z,44.95
2022-10-09T08:29:49.223Z,45.09
2022-10-09T08:32:15.803Z,45.28
2022-10-09T08:34:42.531Z,45.38
2022-10-09T08:37:09.102Z,45.57
2022-10-09T08:39:35.708Z,45.79
2022-10-09T08:42:03.321Z,45.83
2022-10-09T08:44:45.478Z,45.93
2022-10-09T08:47:29.009Z,45.66
2022-10-09T08:50:24.357Z,45.70
2022-10-09T08:53:01.789Z,45.62
2022-10-09T08:55:29.543Z,45.64
2022-10-09T08:57:57.389Z,45.78
2022-10-09T09:00:29.293Z,45.79
2022-10-09T09:03:20.548Z,45.85
2022-10-09T09:06:12.344Z,45.94
2022-10-09T09:09:14.592Z,46.04
2022-10-09T09:11:55.000Z,46.15
2022-10-09T09:14:47.748Z,46.19
2022-10-09T09:17:22.188Z,46.29
2022-10-09T09:20:14.591Z,46.32
2022-10-09T09:22:42.683Z,46.39
2022-10-09T09:25:20.931Z,46.43
2022-10-09T09:27:47.733Z,46.44
2022-10-09T09:30:24.626Z,46.49
2022-10-09T09:33:05.916Z,46.55
2022-10-09T09:35:47.018Z,46.53
2022-10-09T09:38:14.416Z,46.58
2022-10-09T09:40:45.861Z,46.63
2022-10-09T09:43:23.514Z,46.72
2022-10-09T09:45:54.056Z,46.77
2022-10-09T09:48:39.293Z,46.78
2022-10-09T09:51:32.584Z,46.82
2022-10-09T09:54:00.906Z,46.87
2022-10-09T09:56:53.370Z,46.88
2022-10-09T09:59:30.155Z,46.96
2022-10-09T10:02:01.455Z,46.97
2022-10-09T10:04:28.443Z,47.01
2022-10-09T10:06:55.138Z,47.06
2022-10-09T10:09:21.766Z,47.06
2022-10-09T10:11:57.946Z,47.06
2022-10-09T10:14:24.755Z,47.09
2022-10-09T10:16:52.549Z,47.14
2022-10-09T10:19:27.128Z,47.18
2022-10-09T10:22:03.230Z,47.15
2022-10-09T10:24:43.729Z,47.18
2022-10-09T10:27:22.793Z,47.22
2022-10-09T10:29:49.807Z,47.24
2022-10-09T10:32:22.145Z,47.24
2022-10-09T10:34:57.811Z,47.26
2022-10-09T10:37:38.661Z,47.30
2022-10-09T10:40:35.119Z,47.30
2022-10-09T10:43:11.013Z,47.30
2022-10-09T10:45:57.027Z,47.30
2022-10-09T10:48:32.434Z,47.33
2022-10-09T10:51:09.131Z,47.36
2022-10-09T10:53:46.442Z,47.38
2022-10-09T10:56:23.697Z,47.38
2022-10-09T10:58:58.954Z,47.40
2022-10-09T11:01:25.660Z,47.41
2022-10-09T11:04:10.004Z,47.43
2022-10-09T11:07:08.915Z,47.46
2022-10-09T11:09:35.320Z,47.47
2022-10-09T11:12:43.232Z,47.47
2022-10-09T11:15:19.603Z,47.47
2022-10-09T11:18:40.830Z,47.46
2022-10-09T11:21:28.676Z,47.47
2022-10-09T11:24:24.110Z,47.46
2022-10-09T11:27:03.385Z,47.48
2022-10-09T11:29:38.448Z,47.50
2022-10-09T11:32:17.689Z,47.49
2022-10-09T11:34:58.121Z,47.48
2022-10-09T11:37:27.766Z,47.49
2022-10-09T11:39:55.026Z,47.48
2022-10-09T11:42:23.578Z,47.49
2022-10-09T11:44:53.431Z,47.48
2022-10-09T11:47:38.847Z,47.48
2022-10-09T11:50:28.746Z,47.48
2022-10-09T11:52:59.955Z,47.49
2022-10-09T11:55:28.732Z,47.47
2022-10-09T11:57:55.371Z,47.48
2022-10-09T12:00:32.569Z,47.49
2022-10-09T12:03:03.779Z,47.48
2022-10-09T12:05:45.085Z,47.47
2022-10-09T12:08:19.408Z,47.49
2022-10-09T12:10:57.896Z,47.49
2022-10-09T12:13:31.367Z,47.49
2022-10-09T12:15:58.715Z,47.51
2022-10-09T12:18:28.010Z,47.49
2022-10-09T12:20:54.711Z,47.49
2022-10-09T12:23:27.212Z,47.49
2022-10-09T12:25:54.379Z,47.48
2022-10-09T12:28:31.566Z,47.47
2022-10-09T12:30:59.827Z,47.48
2022-10-09T12:33:34.599Z,47.46
2022-10-09T12:36:06.895Z,47.46
2022-10-09T12:38:33.472Z,47.46
2022-10-09T12:41:03.271Z,47.44
2022-10-09T12:43:30.049Z,47.44
2022-10-09T12:45:56.654Z,47.43
2022-10-09T12:48:25.856Z,47.43
2022-10-09T12:50:52.945Z,47.42
2022-10-09T12:53:24.474Z,47.41
2022-10-09T12:56:00.671Z,47.40
2022-10-09T12:58:32.381Z,47.38
2022-10-09T13:01:03.974Z,47.38
2022-10-09T13:03:43.817Z,47.36
2022-10-09T13:06:15.351Z,47.33
2022-10-09T13:08:41.937Z,47.31
2022-10-09T13:11:25.427Z,47.29
2022-10-09T13:13:52.455Z,47.30
2022-10-09T13:16:19.759Z,47.27
2022-10-09T13:18:59.658Z,47.27
2022-10-09T13:21:35.064Z,47.26
2022-10-09T13:24:13.622Z,47.26
2022-10-09T13:26:42.327Z,47.25
2022-10-09T13:29:08.898Z,47.25
2022-10-09T13:31:37.035Z,47.25
2022-10-09T13:34:11.315Z,47.26
2022-10-09T13:36:37.857Z,47.25
2022-10-09T13:39:04.696Z,47.26
2022-10-09T13:41:31.267Z,47.27
2022-10-09T13:43:57.845Z,47.27
2022-10-09T13:46:24.560Z,47.27
2022-10-09T13:48:51.161Z,47.27
2022-10-09T13:51:17.798Z,47.27
2022-10-09T13:53:44.416Z,47.26
2022-10-09T13:56:11.067Z,47.27
2022-10-09T13:58:37.620Z,47.25
2022-10-09T14:01:06.595Z,47.25
2022-10-09T14:03:33.334Z,47.24
2022-10-09T14:06:00.975Z,47.23
2022-10-09T14:08:27.619Z,47.22
2022-10-09T14:10:54.459Z,47.21
2022-10-09T14:13:21.803Z,47.19
2022-10-09T14:15:48.363Z,47.18
2022-10-09T14:18:14.930Z,47.17
2022-10-09T14:20:41.518Z,47.17
2022-10-09T14:23:13.556Z,47.16
2022-10-09T14:25:40.540Z,47.14
2022-10-09T14:28:07.332Z,47.12
2022-10-09T14:30:33.959Z,47.12
2022-10-09T14:33:00.577Z,47.11
2022-10-09T14:35:27.123Z,47.10
2022-10-09T14:37:53.668Z,47.11
2022-10-09T14:40:20.253Z,47.12
2022-10-09T14:42:47.037Z,47.09
2022-10-09T14:45:13.687Z,47.11
2022-10-09T14:47:40.351Z,47.11
2022-10-09T14:50:07.309Z,47.11
2022-10-09T14:52:35.203Z,47.12
2022-10-09T14:55:01.764Z,47.13
2022-10-09T14:57:31.627Z,47.12
2022-10-09T15:00:02.091Z,47.10
2022-10-09T15:02:28.807Z,47.10
2022-10-09T15:04:55.417Z,47.09
2022-10-09T15:07:22.002Z,47.09
2022-10-09T15:09:48.554Z,47.09
2022-10-09T15:12:15.129Z,47.09
2022-10-09T15:14:41.707Z,47.08
2022-10-09T15:17:08.254Z,47.07
2022-10-09T15:19:34.846Z,47.07
2022-10-09T15:22:01.445Z,47.07
2022-10-09T15:24:28.142Z,47.08
2022-10-09T15:26:54.776Z,47.08
2022-10-09T15:29:21.374Z,47.08
2022-10-09T15:31:49.744Z,47.08
2022-10-09T15:34:17.962Z,47.08
2022-10-09T15:36:45.962Z,47.07
2022-10-09T15:39:15.660Z,47.09
2022-10-09T15:41:43.261Z,47.09
2022-10-09T15:44:17.819Z,47.09
2022-10-09T15:46:44.693Z,47.10
2022-10-09T15:49:11.393Z,47.10
2022-10-09T15:51:38.168Z,47.07
2022-10-09T15:54:05.426Z,47.07
2022-10-09T15:56:36.071Z,47.07
2022-10-09T15:59:06.182Z,47.06
2022-10-09T16:01:32.885Z,47.06
2022-10-09T16:03:59.498Z,47.06
2022-10-09T16:06:26.059Z,47.05
2022-10-09T16:08:55.537Z,47.05
2022-10-09T16:11:25.143Z,47.02
2022-10-09T16:13:53.713Z,47.01
2022-10-09T16:16:22.112Z,47.00
2022-10-09T16:18:48.705Z,46.98
2022-10-09T16:21:17.303Z,46.95
2022-10-09T16:23:44.070Z,46.95
2022-10-09T16:26:10.923Z,46.92
2022-10-09T16:28:37.743Z,46.91
2022-10-09T16:31:04.359Z,46.88
2022-10-09T16:33:30.970Z,46.86
2022-10-09T16:36:10.675Z,46.84
2022-10-09T16:38:38.052Z,46.83
2022-10-09T16:41:07.858Z,46.82
2022-10-09T16:43:34.456Z,46.80
2022-10-09T16:46:10.869Z,46.79
2022-10-09T16:48:37.649Z,46.75
2022-10-09T16:51:11.219Z,46.73
2022-10-09T16:53:37.892Z,46.69
2022-10-09T16:56:12.365Z,46.66
2022-10-09T16:58:39.926Z,46.62
2022-10-09T17:01:10.356Z,46.59
2022-10-09T17:03:40.294Z,46.58
2022-10-09T17:06:25.338Z,46.51
2022-10-09T17:08:52.779Z,46.49
2022-10-09T17:11:19.512Z,46.45
2022-10-09T17:13:46.318Z,46.41
2022-10-09T17:16:18.643Z,46.38
2022-10-09T17:18:46.183Z,46.34
2022-10-09T17:21:12.909Z,46.30
2022-10-09T17:23:39.472Z,46.24
2022-10-09T17:26:10.123Z,46.21
2022-10-09T17:28:36.837Z,46.17
2022-10-09T17:31:08.403Z,46.11
2022-10-09T17:33:39.227Z,46.06
2022-10-09T17:36:05.938Z,46.04
2022-10-09T17:38:32.478Z,46.03
2022-10-09T17:40:59.236Z,45.97
2022-10-09T17:43:25.786Z,45.91
2022-10-09T17:45:52.481Z,45.85
2022-10-09T17:48:19.061Z,45.81
2022-10-09T17:50:55.438Z,45.82
2022-10-09T17:53:25.076Z,45.75
2022-10-09T17:55:53.004Z,45.68
2022-10-09T17:58:19.868Z,45.64
2022-10-09T18:00:46.547Z,45.57
2022-10-09T18:03:13.431Z,45.60
2022-10-09T18:05:44.197Z,45.54
2022-10-09T18:08:11.232Z,45.52
2022-10-09T18:10:37.785Z,45.55
2022-10-09T18:13:05.195Z,45.47
2022-10-09T18:15:31.785Z,45.40
2022-10-09T18:17:58.326Z,45.29
2022-10-09T18:20:25.003Z,45.28
2022-10-09T18:22:51.583Z,45.29
2022-10-09T18:25:18.257Z,45.18
2022-10-09T18:27:44.837Z,45.14
2022-10-09T18:30:11.939Z,45.11
2022-10-09T18:32:38.520Z,45.10
2022-10-09T18:35:05.302Z,44.98
2022-10-09T18:37:31.852Z,44.97
2022-10-09T18:39:58.400Z,45.04
2022-10-09T18:42:25.044Z,44.97
2022-10-09T18:44:51.726Z,44.96
2022-10-09T18:47:18.659Z,44.91
2022-10-09T18:49:47.217Z,44.85
2022-10-09T18:52:13.871Z,44.87
2022-10-09T18:54:40.896Z,44.85
2022-10-09T18:57:07.577Z,44.87
2022-10-09T18:59:35.095Z,44.78
2022-10-09T19:02:01.734Z,44.68
2022-10-09T19:04:28.317Z,44.69
2022-10-09T19:06:55.102Z,44.67
2022-10-09T19:09:21.924Z,44.71
2022-10-09T19:11:48.509Z,44.72
2022-10-09T19:14:15.914Z,44.66
2022-10-09T19:16:42.615Z,44.70
2022-10-09T19:19:09.200Z,44.66
2022-10-09T19:21:37.858Z,44.67
2022-10-09T19:24:06.219Z,44.63
2022-10-09T19:26:33.142Z,44.68
2022-10-09T19:29:00.030Z,44.65
2022-10-09T19:31:26.618Z,44.68
2022-10-09T19:33:53.338Z,44.69
2022-10-09T19:36:19.915Z,44.64
2022-10-09T19:38:46.723Z,44.66
2022-10-09T19:41:14.693Z,44.63
2022-10-09T19:43:41.571Z,44.54
2022-10-09T19:46:09.982Z,44.58
2022-10-09T19:48:36.790Z,44.48
2022-10-09T19:51:07.366Z,44.39
2022-10-09T19:53:34.628Z,44.61
2022-10-09T19:56:02.844Z,44.37
2022-10-09T19:58:31.291Z,44.40
2022-10-09T20:00:57.880Z,44.26
2022-10-09T20:03:24.468Z,44.25
2022-10-09T20:05:51.054Z,44.27
2022-10-09T20:08:17.669Z,44.33
2022-10-09T20:10:44.231Z,44.31
2022-10-09T20:13:10.775Z,44.19
2022-10-09T20:15:41.516Z,44.15
2022-10-09T20:18:08.103Z,44.09
2022-10-09T20:20:35.528Z,44.05
2022-10-09T20:23:02.078Z,43.99
2022-10-09T20:25:28.765Z,43.97
2022-10-09T20:27:55.320Z,43.97
2022-10-09T20:30:21.882Z,43.89
2022-10-09T20:32:49.411Z,43.91
2022-10-09T20:35:16.287Z,43.91
2022-10-09T20:37:42.816Z,43.60
2022-10-09T20:40:09.699Z,43.66
2022-10-09T20:42:36.272Z,43.55
2022-10-09T20:45:02.870Z,43.35
2022-10-09T20:47:29.445Z,43.35
2022-10-09T20:49:56.003Z,43.27
2022-10-09T20:52:22.553Z,43.24
2022-10-09T20:54:49.193Z,43.19
2022-10-09T20:57:15.764Z,43.06
2022-10-09T20:59:42.436Z,42.92
2022-10-09T21:02:10.341Z,42.89
2022-10-09T21:04:36.926Z,42.91
2022-10-09T21:07:03.535Z,42.94
2022-10-09T21:09:33.266Z,42.90
2022-10-09T21:12:00.345Z,42.88
2022-10-09T21:14:26.898Z,42.82
2022-10-09T21:16:53.592Z,42.77
2022-10-09T21:19:20.123Z,42.67
2022-10-09T21:21:50.890Z,42.59
2022-10-09T21:24:18.052Z,42.50
2022-10-09T21:26:47.050Z,42.46
2022-10-09T21:29:14.047Z,42.40
2022-10-09T21:31:40.726Z,42.41
2022-10-09T21:34:07.471Z,42.41
2022-10-09T21:36:50.814Z,42.44
2022-10-09T21:39:25.660Z,42.41
2022-10-09T21:41:52.295Z,42.38
2022-10-09T21:44:19.109Z,42.35
2022-10-09T21:46:45.663Z,42.29
2022-10-09T21:49:27.221Z,42.33
2022-10-09T21:51:53.980Z,42.19
2022-10-09T21:54:20.792Z,42.18
2022-10-09T21:56:47.348Z,42.17
2022-10-09T21:59:14.011Z,42.11
2022-10-09T22:01:40.623Z,42.02
2022-10-09T22:04:07.223Z,41.99
2022-10-09T22:06:33.866Z,41.96
2022-10-09T22:09:00.438Z,41.92
2022-10-09T22:11:27.052Z,41.90
2022-10-09T22:13:55.221Z,41.93
2022-10-09T22:16:21.812Z,41.89
2022-10-09T22:18:48.381Z,41.82
2022-10-09T22:21:15.277Z,41.85
2022-10-09T22:23:42.018Z,41.74
2022-10-09T22:26:11.583Z,41.71
2022-10-09T22:28:38.171Z,41.72
2022-10-09T22:31:11.799Z,41.63
2022-10-09T22:33:38.348Z,41.62
2022-10-09T22:36:15.710Z,41.56
2022-10-09T22:38:42.618Z,41.54
2022-10-09T22:41:13.383Z,41.47
2022-10-09T22:43:40.057Z,41.48
2022-10-09T22:46:10.911Z,41.45
2022-10-09T22:48:37.847Z,41.41
2022-10-09T22:51:05.384Z,41.33
2022-10-09T22:53:32.201Z,41.33
2022-10-09T22:55:58.832Z,41.24
2022-10-09T22:58:25.493Z,41.21
2022-10-09T23:00:52.190Z,41.20
2022-10-09T23:03:18.825Z,41.24
2022-10-09T23:05:45.382Z,41.16
2022-10-09T23:08:12.204Z,41.07
2022-10-09T23:10:39.355Z,41.10
2022-10-09T23:13:06.152Z,41.05
2022-10-09T23:15:36.620Z,41.02
2022-10-09T23:18:04.390Z,40.92
2022-10-09T23:20:31.031Z,40.94
2022-10-09T23:22:57.661Z,40.89
2022-10-09T23:25:24.309Z,40.92
2022-10-09T23:27:50.979Z,40.83
2022-10-09T23:30:17.779Z,40.74
2022-10-09T23:32:44.343Z,40.70
2022-10-09T23:35:11.002Z,40.66
2022-10-09T23:37:37.575Z,40.66
2022-10-09T23:40:04.585Z,40.56
2022-10-09T23:42:31.128Z,40.51
2022-10-09T23:45:00.570Z,40.52
2022-10-09T23:47:27.105Z,40.43
2022-10-09T23:49:53.876Z,40.39
2022-10-09T23:52:20.460Z,40.28
2022-10-09T23:54:47.007Z,40.23
2022-10-09T23:57:13.595Z,40.20
2022-10-09T23:59:40.157Z,40.21
